createdAt,value
2018-10-12T00:00:51.660Z,16.74
2018-10-12T00:01:51.665Z,16.77
2018-10-12T00:02:51.649Z,16.75
2018-10-12T00:03:51.660Z,17.03
2018-10-12T00:04:51.652Z,16.96
2018-10-12T00:05:51.652Z,17.08
2018-10-12T00:06:51.651Z,16.99
2018-10-12T00:07:51.649Z,16.98
2018-10-12T00:08:51.655Z,16.95
2018-10-12T00:09:51.671Z,16.98
2018-10-12T00:10:51.648Z,16.89
2018-10-12T00:11:51.655Z,16.90
2018-10-12T00:12:51.653Z,16.95
2018-10-12T00:13:51.662Z,16.88
2018-10-12T00:14:51.676Z,16.90
2018-10-12T00:15:51.646Z,16.80
2018-10-12T00:16:51.651Z,16.99
2018-10-12T00:17:51.659Z,17.04
2018-10-12T00:18:51.649Z,16.89
2018-10-12T00:19:51.651Z,16.90
2018-10-12T00:20:51.650Z,16.93
2018-10-12T00:21:51.651Z,16.73
2018-10-12T00:22:51.647Z,16.67
2018-10-12T00:23:51.649Z,16.58
2018-10-12T00:24:51.644Z,16.50
2018-10-12T00:25:51.640Z,16.42
2018-10-12T00:26:51.646Z,16.50
2018-10-12T00:27:51.644Z,16.60
2018-10-12T00:28:51.669Z,16.55
2018-10-12T00:29:51.641Z,16.52
2018-10-12T00:30:51.649Z,16.49
2018-10-12T00:31:51.645Z,16.73
2018-10-12T00:32:51.652Z,16.60
2018-10-12T00:33:51.644Z,16.63
2018-10-12T00:34:51.644Z,16.70
2018-10-12T00:35:51.649Z,16.55
2018-10-12T00:36:51.639Z,16.62
2018-10-12T00:37:51.638Z,16.50
2018-10-12T00:38:51.643Z,16.58
2018-10-12T00:39:51.645Z,16.58
2018-10-12T00:40:51.644Z,16.71
2018-10-12T00:41:51.641Z,16.60
2018-10-12T00:42:51.648Z,16.49
2018-10-12T00:43:51.632Z,16.48
2018-10-12T00:44:51.639Z,16.48
2018-10-12T00:45:51.643Z,16.50
2018-10-12T00:46:51.633Z,16.49
2018-10-12T00:47:51.631Z,16.35
2018-10-12T00:48:51.637Z,16.31
2018-10-12T00:49:51.731Z,16.45
2018-10-12T00:50:51.636Z,16.49
2018-10-12T00:51:51.631Z,16.62
2018-10-12T00:52:51.632Z,16.31
2018-10-12T00:53:51.632Z,16.34
2018-10-12T00:54:51.628Z,16.48
2018-10-12T00:55:51.630Z,16.35
2018-10-12T00:56:51.631Z,16.26
2018-10-12T00:57:51.636Z,16.31
2018-10-12T00:58:51.631Z,16.42
2018-10-12T00:59:51.627Z,16.40
2018-10-12T01:00:51.633Z,16.30
2018-10-12T01:01:51.623Z,16.45
2018-10-12T01:02:51.629Z,16.56
2018-10-12T01:03:51.618Z,16.37
2018-10-12T01:04:51.645Z,16.38
2018-10-12T01:05:51.626Z,16.35
2018-10-12T01:06:51.634Z,16.45
2018-10-12T01:07:51.628Z,16.42
2018-10-12T01:08:51.622Z,16.35
2018-10-12T01:09:51.619Z,16.35
2018-10-12T01:10:51.621Z,16.38
2018-10-12T01:11:51.626Z,16.56
2018-10-12T01:12:51.619Z,16.37
2018-10-12T01:13:51.627Z,16.52
2018-10-12T01:14:51.614Z,16.45
2018-10-12T01:15:51.619Z,16.58
2018-10-12T01:16:51.615Z,16.68
2018-10-12T01:17:51.621Z,16.48
2018-10-12T01:18:51.615Z,16.23
2018-10-12T01:19:51.625Z,16.23
2018-10-12T01:20:51.610Z,16.14
2018-10-12T01:21:51.613Z,16.22
2018-10-12T01:22:51.607Z,16.30
2018-10-12T01:23:51.615Z,16.50
2018-10-12T01:24:51.617Z,16.35
2018-10-12T01:25:51.617Z,16.23
2018-10-12T01:26:51.609Z,15.97
2018-10-12T01:27:51.618Z,15.94
2018-10-12T01:28:51.609Z,15.94
2018-10-12T01:29:51.611Z,16.23
2018-10-12T01:30:51.601Z,16.04
2018-10-12T01:31:51.602Z,16.06
2018-10-12T01:32:51.605Z,16.03
2018-10-12T01:33:51.618Z,15.88
2018-10-12T01:34:51.600Z,15.85
2018-10-12T01:35:51.610Z,15.54
2018-10-12T01:36:51.600Z,15.36
2018-10-12T01:37:51.603Z,15.49
2018-10-12T01:38:51.600Z,15.78
2018-10-12T01:39:51.603Z,15.79
2018-10-12T01:40:51.598Z,15.72
2018-10-12T01:41:51.602Z,15.81
2018-10-12T01:42:51.598Z,15.89
2018-10-12T01:43:51.589Z,15.61
2018-10-12T01:44:51.596Z,15.76
2018-10-12T01:45:51.596Z,15.78
2018-10-12T01:46:51.598Z,15.81
2018-10-12T01:47:51.595Z,15.93
2018-10-12T01:48:51.586Z,16.00
2018-10-12T01:49:51.594Z,15.92
2018-10-12T01:50:51.596Z,15.86
2018-10-12T01:51:51.588Z,15.92
2018-10-12T01:52:51.591Z,15.93
2018-10-12T01:53:51.589Z,15.88
2018-10-12T01:54:51.581Z,15.93
2018-10-12T01:55:51.586Z,15.86
2018-10-12T01:56:51.581Z,15.92
2018-10-12T01:57:51.583Z,15.81
2018-10-12T01:58:51.579Z,15.78
2018-10-12T01:59:51.582Z,15.78
2018-10-12T02:00:51.579Z,15.82
2018-10-12T02:01:51.576Z,15.88
2018-10-12T02:02:51.575Z,15.74
2018-10-12T02:03:51.582Z,15.63
2018-10-12T02:04:51.581Z,15.79
2018-10-12T02:05:51.576Z,15.85
2018-10-12T02:06:51.574Z,16.04
2018-10-12T02:07:51.580Z,16.18
2018-10-12T02:08:51.571Z,16.01
2018-10-12T02:09:51.584Z,15.85
2018-10-12T02:10:51.570Z,15.72
2018-10-12T02:11:51.570Z,15.84
2018-10-12T02:12:51.570Z,15.75
2018-10-12T02:13:51.563Z,15.88
2018-10-12T02:14:51.569Z,15.82
2018-10-12T02:15:51.560Z,15.79
2018-10-12T02:16:51.557Z,15.78
2018-10-12T02:17:51.570Z,15.52
2018-10-12T02:18:51.571Z,15.38
2018-10-12T02:19:51.561Z,15.17
2018-10-12T02:20:51.560Z,15.08
2018-10-12T02:21:51.558Z,15.23
2018-10-12T02:22:51.589Z,15.11
2018-10-12T02:23:51.552Z,14.95
2018-10-12T02:24:51.569Z,15.05
2018-10-12T02:25:51.565Z,15.05
2018-10-12T02:26:51.558Z,15.01
2018-10-12T02:27:51.571Z,14.90
2018-10-12T02:28:51.548Z,15.03
2018-10-12T02:29:51.549Z,15.24
2018-10-12T02:30:51.548Z,15.28
2018-10-12T02:31:51.552Z,15.60
2018-10-12T02:32:51.541Z,15.46
2018-10-12T02:33:51.545Z,15.66
2018-10-12T02:34:51.542Z,15.45
2018-10-12T02:35:51.552Z,15.31
2018-10-12T02:36:51.539Z,15.36
2018-10-12T02:37:51.540Z,15.45
2018-10-12T02:38:51.533Z,15.68
2018-10-12T02:39:51.599Z,15.48
2018-10-12T02:40:51.532Z,15.20
2018-10-12T02:41:51.536Z,15.26
2018-10-12T02:42:51.532Z,15.27
2018-10-12T02:43:51.529Z,15.33
2018-10-12T02:44:51.532Z,15.64
2018-10-12T02:45:51.528Z,15.59
2018-10-12T02:46:51.530Z,15.35
2018-10-12T02:47:51.528Z,15.31
2018-10-12T02:48:51.523Z,15.33
2018-10-12T02:50:00.169Z,15.33
2018-10-12T02:51:44.984Z,15.33
2018-10-12T02:52:44.912Z,15.27
2018-10-12T02:53:44.909Z,15.28
2018-10-12T02:54:44.909Z,15.26
2018-10-12T02:55:44.919Z,15.23
2018-10-12T03:15:10.971Z,15.31
2018-10-12T03:16:10.952Z,15.60
2018-10-12T03:17:10.949Z,15.64
2018-10-12T03:18:10.935Z,15.57
2018-10-12T03:19:10.938Z,15.46
2018-10-12T03:20:10.928Z,15.38
2018-10-12T03:21:10.926Z,15.45
2018-10-12T03:22:10.926Z,15.17
2018-10-12T03:23:10.915Z,15.11
2018-10-12T03:24:10.912Z,15.02
2018-10-12T03:25:10.911Z,14.90
2018-10-12T03:26:10.907Z,14.83
2018-10-12T03:27:10.908Z,15.13
2018-10-12T03:28:10.895Z,15.08
2018-10-12T03:29:10.897Z,15.09
2018-10-12T03:30:10.900Z,15.02
2018-10-12T03:31:10.898Z,15.12
2018-10-12T03:32:10.959Z,15.26
2018-10-12T03:33:10.890Z,15.24
2018-10-12T03:34:10.898Z,15.30
2018-10-12T03:35:10.888Z,15.54
2018-10-12T03:36:10.883Z,15.36
2018-10-12T03:37:10.920Z,15.45
2018-10-12T03:38:10.879Z,15.30
2018-10-12T03:39:10.872Z,15.20
2018-10-12T03:40:10.869Z,15.38
2018-10-12T03:41:10.869Z,15.21
2018-10-12T03:42:10.874Z,14.93
2018-10-12T03:43:10.871Z,14.69
2018-10-12T03:44:10.867Z,14.81
2018-10-12T03:45:10.869Z,15.01
2018-10-12T03:46:10.873Z,15.33
2018-10-12T03:47:10.864Z,15.31
2018-10-12T03:48:10.870Z,15.38
2018-10-12T03:49:10.860Z,15.02
2018-10-12T03:50:10.858Z,14.84
2018-10-12T03:51:10.858Z,14.75
2018-10-12T03:52:10.849Z,14.62
2018-10-12T03:53:10.855Z,14.64
2018-10-12T03:54:10.851Z,14.65
2018-10-12T03:55:10.850Z,14.20
2018-10-12T03:56:10.850Z,13.95
2018-10-12T03:57:10.845Z,14.50
2018-10-12T03:58:10.841Z,14.44
2018-10-12T03:59:10.842Z,14.60
2018-10-12T04:00:10.844Z,14.80
2018-10-12T04:01:10.844Z,14.65
2018-10-12T04:02:10.839Z,14.68
2018-10-12T04:03:10.839Z,14.69
2018-10-12T04:04:10.828Z,14.72
2018-10-12T04:05:10.834Z,14.80
2018-10-12T04:06:10.830Z,14.71
2018-10-12T04:07:10.834Z,14.81
2018-10-12T04:08:10.827Z,14.80
2018-10-12T04:09:10.827Z,14.57
2018-10-12T04:10:10.824Z,14.14
2018-10-12T04:11:10.830Z,14.09
2018-10-12T04:12:10.819Z,13.96
2018-10-12T04:13:10.824Z,14.24
2018-10-12T04:14:10.812Z,14.24
2018-10-12T04:15:10.816Z,14.38
2018-10-12T04:16:10.816Z,14.39
2018-10-12T04:17:10.808Z,14.20
2018-10-12T04:18:10.867Z,14.17
2018-10-12T04:19:10.817Z,13.92
2018-10-12T04:20:10.803Z,14.21
2018-10-12T04:21:10.806Z,14.34
2018-10-12T04:22:10.805Z,14.47
2018-10-12T04:23:10.807Z,14.34
2018-10-12T04:24:10.808Z,14.37
2018-10-12T04:25:10.795Z,14.28
2018-10-12T04:26:10.792Z,13.99
2018-10-12T04:27:10.786Z,13.96
2018-10-12T04:28:10.790Z,14.24
2018-10-12T04:29:10.784Z,14.01
2018-10-12T04:30:10.784Z,13.77
2018-10-12T04:31:10.792Z,14.20
2018-10-12T04:32:10.785Z,14.10
2018-10-12T04:33:10.778Z,14.02
2018-10-12T04:34:10.773Z,13.81
2018-10-12T04:35:10.778Z,14.07
2018-10-12T04:36:10.787Z,14.38
2018-10-12T04:37:10.785Z,14.44
2018-10-12T04:38:10.771Z,14.61
2018-10-12T04:39:10.767Z,14.86
2018-10-12T04:40:10.767Z,14.62
2018-10-12T04:41:10.766Z,14.64
2018-10-12T04:42:10.767Z,14.47
2018-10-12T04:43:10.757Z,14.50
2018-10-12T04:44:10.756Z,14.34
2018-10-12T04:45:10.764Z,14.01
2018-10-12T04:46:10.752Z,13.87
2018-10-12T04:47:10.814Z,14.14
2018-10-12T04:48:10.761Z,14.19
2018-10-12T04:49:10.764Z,13.89
2018-10-12T04:50:10.760Z,13.73
2018-10-12T04:51:10.748Z,13.62
2018-10-12T04:52:10.738Z,13.61
2018-10-12T04:53:10.741Z,13.58
2018-10-12T04:54:10.744Z,13.51
2018-10-12T04:55:10.737Z,13.54
2018-10-12T04:56:10.747Z,13.51
2018-10-12T04:57:10.732Z,13.59
2018-10-12T04:58:10.758Z,13.55
2018-10-12T04:59:10.742Z,13.70
2018-10-12T05:00:10.733Z,13.84
2018-10-12T05:01:10.796Z,13.77
2018-10-12T05:02:10.729Z,13.91
2018-10-12T05:03:10.722Z,14.12
2018-10-12T05:04:10.748Z,14.21
2018-10-12T05:05:10.724Z,14.78
2018-10-12T05:06:10.728Z,14.98
2018-10-12T05:07:10.714Z,14.93
2018-10-12T05:08:10.718Z,14.69
2018-10-12T05:09:10.714Z,14.84
2018-10-12T05:10:10.739Z,14.53
2018-10-12T05:11:10.709Z,14.49
2018-10-12T05:12:10.696Z,14.57
2018-10-12T05:13:10.734Z,14.21
2018-10-12T05:14:10.716Z,14.53
2018-10-12T05:15:10.713Z,14.50
2018-10-12T05:16:10.683Z,14.25
2018-10-12T05:17:10.693Z,14.29
2018-10-12T05:18:10.708Z,13.91
2018-10-12T05:19:10.679Z,13.52
2018-10-12T05:20:10.686Z,13.32
2018-10-12T05:21:10.680Z,13.91
2018-10-12T05:22:10.764Z,13.73
2018-10-12T05:23:10.677Z,13.56
2018-10-12T05:24:10.694Z,13.00
2018-10-12T05:25:10.692Z,12.70
2018-10-12T05:26:10.677Z,12.96
2018-10-12T05:27:10.674Z,12.92
2018-10-12T05:28:10.665Z,12.92
2018-10-12T05:29:10.664Z,13.09
2018-10-12T05:30:10.693Z,13.54
2018-10-12T05:31:10.652Z,13.87
2018-10-12T05:32:10.656Z,13.99
2018-10-12T05:33:10.650Z,14.20
2018-10-12T05:34:10.661Z,14.49
2018-10-12T05:35:10.672Z,14.64
2018-10-12T05:36:10.838Z,14.74
2018-10-12T05:37:10.639Z,14.44
2018-10-12T05:38:10.646Z,14.25
2018-10-12T05:39:10.638Z,14.02
2018-10-12T05:40:10.653Z,14.02
2018-10-12T05:41:10.638Z,13.98
2018-10-12T05:42:10.631Z,14.02
2018-10-12T05:43:10.703Z,14.04
2018-10-12T05:44:10.640Z,13.88
2018-10-12T05:45:10.629Z,13.96
2018-10-12T05:46:10.619Z,14.21
2018-10-12T05:47:10.636Z,13.98
2018-10-12T05:48:10.633Z,13.74
2018-10-12T05:49:10.619Z,13.69
2018-10-12T05:50:10.616Z,13.40
2018-10-12T05:51:10.615Z,13.59
2018-10-12T05:52:10.608Z,13.91
2018-10-12T05:53:10.616Z,13.99
2018-10-12T05:54:10.627Z,14.13
2018-10-12T05:55:10.611Z,14.01
2018-10-12T05:56:10.603Z,13.96
2018-10-12T05:57:10.600Z,13.94
2018-10-12T05:58:10.594Z,13.96
2018-10-12T05:59:10.602Z,14.07
2018-10-12T06:00:10.594Z,13.79
2018-10-12T06:01:10.612Z,14.13
2018-10-12T06:02:10.589Z,14.13
2018-10-12T06:03:10.582Z,14.14
2018-10-12T06:04:10.579Z,14.13
2018-10-12T06:05:10.574Z,14.16
2018-10-12T06:06:10.589Z,13.98
2018-10-12T06:07:10.584Z,13.87
2018-10-12T06:08:10.587Z,14.09
2018-10-12T06:09:10.569Z,13.65
2018-10-12T06:10:10.633Z,13.49
2018-10-12T06:11:10.573Z,13.24
2018-10-12T06:12:10.573Z,13.77
2018-10-12T06:13:10.563Z,13.99
2018-10-12T06:14:10.557Z,14.09
2018-10-12T06:15:10.554Z,14.21
2018-10-12T06:16:10.553Z,14.21
2018-10-12T06:17:10.581Z,14.14
2018-10-12T06:18:10.544Z,13.51
2018-10-12T06:19:10.576Z,13.36
2018-10-12T06:20:10.552Z,13.22
2018-10-12T06:21:10.571Z,13.70
2018-10-12T06:22:10.544Z,13.73
2018-10-12T06:23:10.539Z,13.95
2018-10-12T06:24:10.544Z,14.19
2018-10-12T06:25:10.528Z,13.94
2018-10-12T06:26:10.538Z,13.91
2018-10-12T06:27:10.532Z,13.95
2018-10-12T06:28:10.531Z,14.47
2018-10-12T06:29:10.520Z,14.74
2018-10-12T06:30:10.523Z,14.78
2018-10-12T06:31:10.533Z,14.60
2018-10-12T06:32:10.527Z,14.35
2018-10-12T06:33:10.598Z,14.39
2018-10-12T06:34:10.548Z,14.43
2018-10-12T06:35:10.517Z,14.61
2018-10-12T06:36:10.535Z,14.57
2018-10-12T06:37:10.539Z,14.44
2018-10-12T06:38:10.502Z,14.47
2018-10-12T06:39:10.524Z,14.17
2018-10-12T06:40:10.506Z,13.99
2018-10-12T06:41:10.540Z,14.13
2018-10-12T06:42:10.522Z,14.10
2018-10-12T06:43:10.488Z,13.96
2018-10-12T06:44:10.544Z,14.14
2018-10-12T06:45:10.508Z,14.07
2018-10-12T06:46:10.485Z,13.99
2018-10-12T06:47:10.560Z,14.01
2018-10-12T06:48:10.577Z,14.04
2018-10-12T06:49:10.484Z,14.16
2018-10-12T06:50:10.574Z,14.09
2018-10-12T06:51:10.479Z,13.89
2018-10-12T06:52:10.494Z,13.96
2018-10-12T06:53:10.475Z,14.16
2018-10-12T06:54:10.491Z,14.19
2018-10-12T06:55:10.572Z,14.38
2018-10-12T06:56:10.492Z,14.47
2018-10-12T06:57:10.520Z,14.38
2018-10-12T06:58:10.501Z,14.46
2018-10-12T06:59:10.508Z,14.39
2018-10-12T07:00:10.524Z,14.31
2018-10-12T07:01:10.631Z,14.28
2018-10-12T07:02:10.458Z,14.19
2018-10-12T07:03:10.467Z,14.28
2018-10-12T07:04:10.459Z,14.28
2018-10-12T07:05:10.469Z,14.24
2018-10-12T07:06:10.455Z,14.24
2018-10-12T07:07:10.457Z,14.21
2018-10-12T07:08:10.449Z,14.14
2018-10-12T07:09:10.444Z,14.13
2018-10-12T07:10:10.468Z,14.09
2018-10-12T07:11:10.443Z,14.07
2018-10-12T07:12:10.439Z,14.13
2018-10-12T07:13:10.485Z,14.16
2018-10-12T07:14:10.437Z,14.37
2018-10-12T07:15:10.441Z,14.42
2018-10-12T07:16:10.426Z,14.37
2018-10-12T07:17:10.429Z,14.53
2018-10-12T07:18:10.430Z,14.64
2018-10-12T07:19:10.424Z,14.74
2018-10-12T07:20:10.421Z,14.81
2018-10-12T07:21:10.417Z,14.75
2018-10-12T07:22:10.418Z,14.80
2018-10-12T07:23:10.414Z,14.83
2018-10-12T07:24:10.412Z,14.75
2018-10-12T07:25:10.417Z,14.64
2018-10-12T07:26:10.414Z,14.72
2018-10-12T07:27:10.410Z,14.61
2018-10-12T07:28:10.407Z,14.47
2018-10-12T07:29:10.404Z,14.44
2018-10-12T07:30:10.402Z,14.57
2018-10-12T07:31:10.418Z,14.57
2018-10-12T07:32:10.448Z,14.57
2018-10-12T07:33:10.391Z,14.68
2018-10-12T07:34:10.394Z,14.60
2018-10-12T07:35:10.393Z,14.65
2018-10-12T07:36:10.389Z,14.75
2018-10-12T07:37:10.449Z,14.80
2018-10-12T07:38:10.381Z,14.80
2018-10-12T07:39:10.384Z,14.87
2018-10-12T07:40:10.388Z,14.95
2018-10-12T07:41:10.397Z,14.87
2018-10-12T07:42:10.392Z,15.03
2018-10-12T07:43:10.384Z,14.86
2018-10-12T07:44:10.373Z,14.71
2018-10-12T07:45:10.375Z,14.81
2018-10-12T07:46:10.376Z,14.80
2018-10-12T07:47:10.378Z,14.95
2018-10-12T07:48:10.443Z,15.03
2018-10-12T07:49:10.369Z,14.91
2018-10-12T07:50:10.365Z,15.11
2018-10-12T07:51:10.363Z,15.19
2018-10-12T07:52:10.381Z,15.06
2018-10-12T07:53:10.371Z,14.94
2018-10-12T07:54:10.363Z,14.94
2018-10-12T07:55:10.357Z,15.12
2018-10-12T07:56:10.369Z,15.11
2018-10-12T07:57:10.346Z,14.95
2018-10-12T07:58:10.350Z,15.08
2018-10-12T07:59:10.350Z,15.15
2018-10-12T08:00:10.422Z,15.12
2018-10-12T08:01:10.667Z,15.17
2018-10-12T08:02:10.348Z,15.13
2018-10-12T08:03:10.352Z,15.17
2018-10-12T08:04:10.341Z,15.27
2018-10-12T08:05:10.347Z,15.26
2018-10-12T08:06:10.442Z,15.41
2018-10-12T08:07:10.354Z,15.49
2018-10-12T08:08:10.335Z,15.48
2018-10-12T08:09:10.339Z,15.54
2018-10-12T08:10:10.331Z,15.60
2018-10-12T08:11:10.332Z,15.79
2018-10-12T08:12:10.376Z,15.68
2018-10-12T08:13:10.334Z,15.64
2018-10-12T08:14:10.339Z,15.84
2018-10-12T08:15:10.331Z,15.76
2018-10-12T08:16:10.342Z,15.79
2018-10-12T08:17:10.329Z,15.84
2018-10-12T08:18:10.332Z,15.84
2018-10-12T08:19:10.332Z,15.85
2018-10-12T08:20:10.359Z,15.96
2018-10-12T08:21:10.333Z,15.93
2018-10-12T08:22:10.328Z,15.96
2018-10-12T08:23:10.320Z,15.89
2018-10-12T08:24:10.323Z,15.97
2018-10-12T08:25:10.313Z,16.00
2018-10-12T08:26:10.319Z,15.96
2018-10-12T08:27:10.336Z,15.99
2018-10-12T08:28:10.315Z,16.12
2018-10-12T08:29:10.314Z,16.23
2018-10-12T08:30:10.310Z,16.22
2018-10-12T08:31:10.314Z,16.20
2018-10-12T08:32:10.317Z,16.14
2018-10-12T08:33:10.312Z,16.25
2018-10-12T08:34:10.306Z,16.30
2018-10-12T08:35:10.313Z,16.41
2018-10-12T08:36:10.364Z,16.48
2018-10-12T08:37:10.314Z,16.49
2018-10-12T08:38:10.308Z,16.48
2018-10-12T08:39:10.307Z,16.49
2018-10-12T08:40:10.331Z,16.49
2018-10-12T08:42:31.365Z,16.53
2018-10-12T08:43:31.328Z,16.50
2018-10-12T08:44:31.327Z,16.53
2018-10-12T08:45:31.323Z,16.56
2018-10-12T08:46:31.329Z,16.70
2018-10-12T08:47:31.332Z,16.50
2018-10-12T08:48:31.326Z,16.49
2018-10-12T08:49:31.342Z,16.59
2018-10-12T08:50:31.328Z,16.60
2018-10-12T08:51:31.332Z,16.70
2018-10-12T08:52:31.323Z,16.88
2018-10-12T08:53:31.321Z,16.88
2018-10-12T08:54:31.330Z,17.04
2018-10-12T08:55:31.342Z,16.96
2018-10-12T08:56:31.318Z,16.93
2018-10-12T08:57:31.313Z,16.85
2018-10-12T08:58:31.323Z,16.98
2018-10-12T08:59:31.311Z,16.95
2018-10-12T09:00:31.324Z,16.93
2018-10-12T09:01:31.312Z,17.00
2018-10-12T09:02:31.318Z,16.99
2018-10-12T09:03:31.312Z,17.25
2018-10-12T09:04:31.331Z,17.30
2018-10-12T09:05:31.315Z,17.20
2018-10-12T09:06:31.309Z,17.17
2018-10-12T09:07:31.314Z,17.14
2018-10-12T09:08:31.319Z,17.22
2018-10-12T09:09:31.317Z,17.29
2018-10-12T09:10:31.317Z,17.32
2018-10-12T09:11:31.315Z,17.29
2018-10-12T09:12:31.317Z,17.23
2018-10-12T09:13:31.307Z,17.35
2018-10-12T09:14:31.322Z,17.30
2018-10-12T09:15:31.314Z,17.22
2018-10-12T09:16:31.328Z,17.43
2018-10-12T09:17:31.313Z,17.43
2018-10-12T09:18:31.338Z,17.41
2018-10-12T09:19:31.327Z,17.54
2018-10-12T09:20:31.439Z,17.55
2018-10-12T09:21:31.320Z,17.64
2018-10-12T09:22:31.308Z,17.66
2018-10-12T09:23:31.340Z,17.59
2018-10-12T09:24:31.317Z,17.64
2018-10-12T09:25:31.323Z,17.64
2018-10-12T09:26:31.320Z,17.74
2018-10-12T09:27:31.352Z,17.62
2018-10-12T09:28:31.318Z,17.66
2018-10-12T09:29:31.316Z,17.84
2018-10-12T09:30:31.320Z,17.73
2018-10-12T09:31:31.326Z,18.02
2018-10-12T09:32:31.320Z,18.21
2018-10-12T09:33:31.348Z,18.33
2018-10-12T09:34:31.360Z,18.52
2018-10-12T09:35:31.316Z,18.49
2018-10-12T09:36:31.404Z,18.64
2018-10-12T09:37:31.319Z,18.65
2018-10-12T09:38:31.315Z,18.58
2018-10-12T09:39:31.317Z,18.62
2018-10-12T09:40:31.312Z,18.50
2018-10-12T09:41:31.317Z,18.62
2018-10-12T09:42:31.317Z,18.70
2018-10-12T09:43:31.319Z,18.77
2018-10-12T09:44:31.311Z,18.87
2018-10-12T09:45:31.322Z,18.61
2018-10-12T09:46:31.316Z,18.72
2018-10-12T09:47:31.326Z,18.58
2018-10-12T09:48:31.324Z,18.47
2018-10-12T09:49:31.330Z,18.52
2018-10-12T09:50:31.356Z,18.42
2018-10-12T09:51:31.319Z,18.46
2018-10-12T09:52:31.324Z,18.43
2018-10-12T09:53:31.331Z,18.58
2018-10-12T09:54:31.317Z,18.72
2018-10-12T09:55:31.322Z,18.72
2018-10-12T09:56:31.313Z,18.61
2018-10-12T09:57:31.322Z,18.61
2018-10-12T09:58:31.318Z,18.98
2018-10-12T09:59:31.330Z,18.86
2018-10-12T10:00:31.320Z,18.98
2018-10-12T10:01:31.379Z,18.90
2018-10-12T10:02:31.327Z,18.94
2018-10-12T10:03:31.334Z,19.28
2018-10-12T10:04:31.323Z,19.06
2018-10-12T10:05:31.330Z,19.10
2018-10-12T10:06:31.333Z,19.10
2018-10-12T10:07:31.386Z,19.06
2018-10-12T10:08:31.494Z,18.98
2018-10-12T10:09:31.329Z,19.05
2018-10-12T10:10:31.337Z,19.01
2018-10-12T10:11:31.338Z,18.97
2018-10-12T10:12:31.331Z,19.11
2018-10-12T10:13:31.333Z,19.21
2018-10-12T10:14:31.333Z,19.32
2018-10-12T10:15:31.398Z,19.40
2018-10-12T10:16:31.331Z,19.31
2018-10-12T10:17:31.340Z,19.21
2018-10-12T10:18:31.341Z,19.28
2018-10-12T10:19:31.336Z,19.24
2018-10-12T10:20:31.336Z,19.35
2018-10-12T10:21:31.344Z,19.33
2018-10-12T10:22:31.392Z,19.55
2018-10-12T10:23:31.341Z,19.63
2018-10-12T10:24:31.353Z,19.88
2018-10-12T10:25:31.350Z,19.70
2018-10-12T10:26:31.695Z,19.68
2018-10-12T10:27:31.352Z,19.79
2018-10-12T10:28:31.367Z,19.75
2018-10-12T10:30:52.430Z,19.73
2018-10-12T10:31:52.414Z,19.90
2018-10-12T10:32:52.412Z,20.00
2018-10-12T10:33:52.424Z,19.95
2018-10-12T10:34:52.419Z,20.02
2018-10-12T10:35:52.426Z,20.06
2018-10-12T10:36:52.427Z,20.02
2018-10-12T10:37:52.450Z,20.09
2018-10-12T10:38:52.430Z,20.02
2018-10-12T10:39:52.437Z,20.03
2018-10-12T10:40:52.432Z,20.06
2018-10-12T10:41:52.426Z,20.27
2018-10-12T10:42:52.438Z,20.34
2018-10-12T10:43:52.424Z,20.23
2018-10-12T10:44:52.433Z,20.03
2018-10-12T10:45:52.435Z,20.05
2018-10-12T10:46:52.450Z,20.46
2018-10-12T10:47:52.443Z,20.38
2018-10-12T10:48:52.432Z,20.51
2018-10-12T10:49:52.445Z,20.54
2018-10-12T10:50:52.435Z,20.64
2018-10-12T10:51:52.436Z,20.59
2018-10-12T10:52:52.440Z,20.46
2018-10-12T10:53:52.458Z,20.61
2018-10-12T10:54:52.458Z,20.76
2018-10-12T10:55:52.452Z,20.59
2018-10-12T10:56:52.469Z,20.87
2018-10-12T10:57:52.470Z,20.69
2018-10-12T10:58:52.473Z,20.79
2018-10-12T10:59:52.456Z,20.91
2018-10-12T11:00:52.467Z,20.76
2018-10-12T11:01:52.467Z,20.79
2018-10-12T11:02:52.457Z,20.80
2018-10-12T11:03:52.462Z,21.02
2018-10-12T11:04:52.483Z,20.95
2018-10-12T11:05:52.473Z,20.89
2018-10-12T11:06:52.482Z,20.76
2018-10-12T11:07:52.468Z,21.05
2018-10-12T11:08:52.473Z,20.87
2018-10-12T11:09:52.484Z,20.89
2018-10-12T11:10:52.497Z,20.91
2018-10-12T11:11:52.487Z,20.83
2018-10-12T11:12:52.642Z,21.09
2018-10-12T11:13:52.481Z,21.13
2018-10-12T11:14:52.494Z,21.08
2018-10-12T11:15:52.521Z,21.17
2018-10-12T11:16:52.507Z,21.50
2018-10-12T11:17:52.500Z,21.69
2018-10-12T11:18:52.507Z,21.60
2018-10-12T11:19:52.509Z,21.51
2018-10-12T11:20:52.515Z,21.72
2018-10-12T11:21:52.520Z,21.59
2018-10-12T11:22:52.517Z,21.78
2018-10-12T11:23:52.502Z,21.71
2018-10-12T11:24:52.512Z,21.66
2018-10-12T11:25:52.513Z,21.72
2018-10-12T11:26:52.569Z,22.01
2018-10-12T11:27:52.514Z,21.69
2018-10-12T11:28:52.516Z,21.78
2018-10-12T11:29:52.517Z,21.53
2018-10-12T11:30:52.519Z,21.63
2018-10-12T11:31:52.528Z,21.48
2018-10-12T11:32:52.674Z,21.50
2018-10-12T11:33:52.535Z,21.72
2018-10-12T11:34:52.536Z,21.63
2018-10-12T11:35:52.535Z,21.60
2018-10-12T11:36:52.532Z,21.72
2018-10-12T11:37:52.540Z,21.69
2018-10-12T11:38:52.540Z,21.64
2018-10-12T11:39:52.562Z,21.72
2018-10-12T11:40:52.570Z,21.94
2018-10-12T11:41:52.547Z,21.85
2018-10-12T11:42:52.568Z,21.75
2018-10-12T11:43:52.554Z,21.75
2018-10-12T11:44:52.613Z,21.78
2018-10-12T11:45:52.555Z,21.88
2018-10-12T11:46:52.557Z,21.82
2018-10-12T11:47:52.565Z,21.72
2018-10-12T11:48:52.584Z,21.63
2018-10-12T11:49:52.575Z,21.74
2018-10-12T11:50:52.572Z,21.97
2018-10-12T11:51:52.569Z,21.94
2018-10-12T11:52:52.575Z,22.09
2018-10-12T11:53:52.617Z,22.12
2018-10-12T11:54:52.593Z,22.29
2018-10-12T11:55:52.594Z,22.27
2018-10-12T11:56:52.586Z,22.16
2018-10-12T11:57:52.588Z,22.13
2018-10-12T11:58:52.600Z,22.28
2018-10-12T11:59:52.595Z,22.28
2018-10-12T12:00:52.646Z,22.22
2018-10-12T12:01:52.608Z,22.14
2018-10-12T12:02:52.605Z,21.81
2018-10-12T12:03:52.610Z,21.90
2018-10-12T12:04:52.630Z,21.66
2018-10-12T12:05:52.616Z,21.59
2018-10-12T12:06:52.644Z,21.76
2018-10-12T12:07:52.628Z,21.91
2018-10-12T12:08:52.644Z,21.81
2018-10-12T12:09:52.653Z,21.91
2018-10-12T12:10:52.645Z,21.59
2018-10-12T12:11:52.654Z,21.66
2018-10-12T12:12:52.648Z,21.92
2018-10-12T12:13:52.755Z,21.94
2018-10-12T12:14:52.666Z,22.29
2018-10-12T12:15:52.636Z,22.46
2018-10-12T12:16:52.649Z,22.56
2018-10-12T12:17:52.658Z,22.59
2018-10-12T12:18:52.658Z,22.53
2018-10-12T12:19:52.660Z,22.43
2018-10-12T12:20:52.656Z,22.49
2018-10-12T12:21:52.691Z,22.19
2018-10-12T12:22:52.667Z,21.98
2018-10-12T12:23:52.673Z,22.29
2018-10-12T12:24:52.667Z,22.57
2018-10-12T12:25:52.696Z,22.68
2018-10-12T12:26:52.697Z,22.27
2018-10-12T12:27:52.691Z,22.46
2018-10-12T12:28:52.688Z,22.80
2018-10-12T12:29:52.693Z,22.99
2018-10-12T12:30:52.687Z,23.19
2018-10-12T12:31:52.710Z,23.32
2018-10-12T12:32:52.706Z,22.96
2018-10-12T12:33:52.720Z,22.90
2018-10-12T12:34:52.820Z,22.87
2018-10-12T12:35:53.213Z,22.78
2018-10-12T12:36:52.709Z,22.87
2018-10-12T12:37:52.727Z,23.11
2018-10-12T12:38:52.727Z,23.02
2018-10-12T12:39:52.723Z,23.04
2018-10-12T12:40:52.743Z,23.17
2018-10-12T12:41:52.729Z,22.86
2018-10-12T12:42:52.734Z,22.99
2018-10-12T12:43:52.734Z,22.97
2018-10-12T12:44:52.739Z,23.01
2018-10-12T12:45:52.770Z,23.04
2018-10-12T12:46:52.750Z,22.93
2018-10-12T12:47:52.888Z,22.83
2018-10-12T12:48:53.188Z,23.20
2018-10-12T12:49:52.751Z,23.26
2018-10-12T12:50:52.764Z,23.17
2018-10-12T12:51:52.762Z,23.15
2018-10-12T12:52:52.773Z,23.12
2018-10-12T12:53:52.833Z,22.78
2018-10-12T12:54:52.788Z,22.37
2018-10-12T12:55:52.779Z,22.62
2018-10-12T12:56:52.781Z,22.92
2018-10-12T12:57:52.783Z,23.09
2018-10-12T12:58:52.789Z,22.78
2018-10-12T12:59:52.795Z,23.08
2018-10-12T13:00:53.043Z,23.26
2018-10-12T13:01:52.803Z,23.38
2018-10-12T13:02:52.808Z,23.05
2018-10-12T13:03:52.816Z,22.75
2018-10-12T13:04:52.804Z,22.72
2018-10-12T13:05:52.824Z,23.02
2018-10-12T13:06:52.850Z,23.20
2018-10-12T13:07:52.821Z,23.02
2018-10-12T13:08:52.831Z,22.90
2018-10-12T13:09:52.846Z,23.17
2018-10-12T13:10:52.829Z,23.58
2018-10-12T13:11:52.843Z,23.64
2018-10-12T13:12:52.842Z,23.55
2018-10-12T13:13:52.850Z,23.39
2018-10-12T13:14:52.853Z,23.29